Airfield :







YOU CAN JOIN US ON...

 
LOGIN :

Register | Disclaimer

   EN    FR    IT 

 









Legend :    VFR   Marginal VFR   IFR   Intensive IFR   Very Intensive IFR
Visi :
Ceiling :
>= 8 km
>= 3000ft
5 to 8 km
1000 to 3000 ft
1500m to 5 km
500 to 1000 ft
800 to 1500m
200 to 500 ft
< 800m
< 200 ft
Symbols :   Thunderstorms  Fog  Heavy snow  Heavy precipitations  Wind > 20 kt






- Airport Elevation : 171 ft
- IATA code : KEF


BIKF - Keflavik International

CURRENT METAR :
  • 070930Z 01008KT 9999 FEW035 BKN070 05/01 Q1001

EXPIRED METARs :
  • 070900Z 01012KT 9999 FEW035 BKN067 04/01 Q1001
  • 070830Z 01012KT 9999 FEW030 BKN069 04/01 Q1001
  • 070800Z 01011KT 9999 FEW024 SCT055 BKN070 04/01 Q1000
  • 070730Z 01011KT 9999 FEW024 SCT050 BKN070 04/01 Q1000
  • 070700Z 01011KT 9999 FEW024 SCT042 BKN070 04/01 Q0999
  • 070630Z 01011KT 9999 FEW024 BKN060 04/01 Q0999

TAF TAF BIKF
Valid from the 07 at 09:00 until the 08 at 09:00 UTC


070722Z 0709/0809 01010KT 9999 SCT020 BKN035 TX06/0715Z TN03/0800Z
BECMG 0722/0800 13010KT
BECMG 0802/0804 12020G30KT -RADZ BKN014 OVC022
TEMPO 0804/0806 3000 RADZ BR OVC008
BECMG 0806/0808 20012KT SHRA SCT018 BKN030
TEMPO 0806/0809 3000 SHRA BKN008



MET'MAP, your aeronautical weather chart ! - Copyright ORBIFLY December 2007 - Disclaimer

ORBIFLY MET'MAP TEAM :

Programming & Development : Alexandra Zaïnal
Original concept : Baudouin d'Aumeries
Technical & hardware support : Manuel Goepfert
Assistance : Marc-Olivier Méhu




SOURCES & CREDITS :

   NOAA